Time,TemperatureF,DewpointF,PressureIn,WindDirection,WindDirectionDegrees,WindSpeedMPH,WindSpeedGustMPH,Humidity,HourlyPrecipIn,Conditions,Clouds,dailyrainin,SoftwareType,DateUTC
2013-01-26 00:02:00,55.2,50.5,30.09,SSW,192,0.0,3.0,84,0.00,,,0.00,meteohub,2013-01-26 08:02:00,
2013-01-26 00:07:00,55.0,50.4,30.09,WNW,290,2.0,2.0,84,0.00,,,0.00,meteohub,2013-01-26 08:07:00,
2013-01-26 00:12:00,55.0,50.4,30.09,WNW,298,2.0,3.0,84,0.00,,,0.00,meteohub,2013-01-26 08:12:00,
2013-01-26 00:17:00,55.0,50.4,30.09,WSW,256,0.0,4.0,84,0.00,,,0.00,meteohub,2013-01-26 08:17:00,
2013-01-26 00:22:00,55.0,50.4,30.09,West,279,0.0,4.0,84,0.00,,,0.00,meteohub,2013-01-26 08:22:00,
2013-01-26 00:27:00,55.0,50.4,30.09,West,271,2.0,4.0,84,0.00,,,0.00,meteohub,2013-01-26 08:27:00,
2013-01-26 00:32:00,54.9,50.2,30.09,West,276,5.0,5.0,84,0.00,,,0.00,meteohub,2013-01-26 08:32:00,
2013-01-26 00:37:00,54.7,50.0,30.09,West,280,4.0,8.0,84,0.00,,,0.00,meteohub,2013-01-26 08:37:00,
2013-01-26 00:42:00,54.3,49.6,30.08,West,266,1.0,8.0,84,0.00,,,0.00,meteohub,2013-01-26 08:42:00,
2013-01-26 00:47:00,54.3,49.8,30.08,West,265,2.0,7.0,85,0.00,,,0.00,meteohub,2013-01-26 08:47:00,
2013-01-26 00:52:00,54.1,49.8,30.08,West,279,0.0,6.0,85,0.00,,,0.00,meteohub,2013-01-26 08:52:00,
2013-01-26 00:57:00,54.1,50.0,30.08,WNW,295,1.0,5.0,86,0.00,,,0.00,meteohub,2013-01-26 08:57:00,
2013-01-26 01:02:00,54.3,50.2,30.08,West,278,2.0,4.0,86,0.00,,,0.00,meteohub,2013-01-26 09:02:00,
2013-01-26 01:07:00,54.3,50.2,30.08,West,279,2.0,3.0,86,0.00,,,0.00,meteohub,2013-01-26 09:07:00,
2013-01-26 01:12:00,54.3,50.2,30.08,NW,307,1.0,3.0,86,0.00,,,0.00,meteohub,2013-01-26 09:12:00,
2013-01-26 01:17:00,54.1,49.8,30.08,NW,305,4.0,6.0,85,0.00,,,0.00,meteohub,2013-01-26 09:17:00,
2013-01-26 01:22:00,54.0,49.6,30.08,NW,305,3.0,6.0,85,0.00,,,0.00,meteohub,2013-01-26 09:22:00,
2013-01-26 01:27:00,54.0,49.6,30.07,West,271,2.0,6.0,85,0.00,,,0.00,meteohub,2013-01-26 09:27:00,
2013-01-26 01:32:00,53.8,49.5,30.08,WNW,292,4.0,6.0,85,0.00,,,0.00,meteohub,2013-01-26 09:32:00,
2013-01-26 01:37:00,53.6,49.3,30.07,WNW,290,2.0,7.0,85,0.00,,,0.00,meteohub,2013-01-26 09:37:00,
2013-01-26 01:42:00,53.4,49.1,30.08,NW,309,1.0,7.0,85,0.00,,,0.00,meteohub,2013-01-26 09:42:00,
2013-01-26 01:47:00,53.4,49.1,30.08,NW,311,4.0,7.0,85,0.00,,,0.00,meteohub,2013-01-26 09:47:00,
2013-01-26 01:52:00,53.4,49.1,30.08,West,263,5.0,6.0,85,0.00,,,0.00,meteohub,2013-01-26 09:52:00,
2013-01-26 01:57:00,53.6,49.3,30.08,NW,317,2.0,7.0,85,0.00,,,0.00,meteohub,2013-01-26 09:57:00,
2013-01-26 02:02:00,53.8,49.5,30.08,NW,305,5.0,7.0,85,0.00,,,0.00,meteohub,2013-01-26 10:02:00,
2013-01-26 02:07:00,53.8,49.5,30.08,WNW,286,2.0,7.0,85,0.00,,,0.00,meteohub,2013-01-26 10:07:00,
2013-01-26 02:12:00,53.8,49.1,30.08,West,271,1.0,7.0,84,0.00,,,0.00,meteohub,2013-01-26 10:12:00,
2013-01-26 02:17:00,54.0,49.3,30.08,WNW,290,3.0,7.0,84,0.00,,,0.00,meteohub,2013-01-26 10:17:00,
2013-01-26 02:22:00,53.8,48.7,30.08,NW,309,1.0,5.0,83,0.00,,,0.00,meteohub,2013-01-26 10:22:00,
2013-01-26 02:27:00,53.8,49.1,30.07,WNW,295,1.0,5.0,84,0.00,,,0.00,meteohub,2013-01-26 10:27:00,
2013-01-26 02:32:00,53.8,49.1,30.07,WNW,298,2.0,5.0,84,0.00,,,0.00,meteohub,2013-01-26 10:32:00,
2013-01-26 02:37:00,53.8,49.1,30.07,West,264,3.0,5.0,84,0.00,,,0.00,meteohub,2013-01-26 10:37:00,
2013-01-26 02:42:00,53.8,48.7,30.07,West,267,1.0,5.0,83,0.00,,,0.00,meteohub,2013-01-26 10:42:00,
2013-01-26 02:47:00,54.0,49.3,30.07,NW,307,2.0,5.0,84,0.00,,,0.00,meteohub,2013-01-26 10:47:00,
2013-01-26 02:52:00,54.0,48.9,30.07,WNW,286,3.0,5.0,83,0.00,,,0.00,meteohub,2013-01-26 10:52:00,
2013-01-26 02:57:00,54.1,49.1,30.07,WNW,303,1.0,4.0,83,0.00,,,0.00,meteohub,2013-01-26 10:57:00,
2013-01-26 03:02:00,54.1,49.1,30.07,WNW,302,3.0,4.0,83,0.00,,,0.00,meteohub,2013-01-26 11:02:00,
2013-01-26 03:07:00,54.1,49.1,30.07,West,271,3.0,5.0,83,0.00,,,0.00,meteohub,2013-01-26 11:07:00,
2013-01-26 03:12:00,54.1,49.1,30.07,West,271,3.0,5.0,83,0.00,,,0.00,meteohub,2013-01-26 11:12:00,
2013-01-26 03:17:00,54.1,49.1,30.07,WSW,246,3.0,4.0,83,0.00,,,0.00,meteohub,2013-01-26 11:17:00,
2013-01-26 03:27:00,54.0,48.9,30.06,West,267,2.0,4.0,83,0.00,,,0.00,meteohub,2013-01-26 11:27:00,
2013-01-26 03:32:00,53.8,49.1,30.06,WSW,248,1.0,3.0,84,0.00,,,0.00,meteohub,2013-01-26 11:32:00,
2013-01-26 03:37:00,53.6,48.9,30.06,WNW,283,2.0,3.0,84,0.00,,,0.00,meteohub,2013-01-26 11:37:00,
2013-01-26 03:42:00,53.8,49.1,30.06,West,268,0.0,3.0,84,0.00,,,0.00,meteohub,2013-01-26 11:42:00,
2013-01-26 03:47:00,53.8,49.1,30.06,WSW,244,1.0,3.0,84,0.00,,,0.00,meteohub,2013-01-26 11:47:00,
2013-01-26 03:52:00,53.8,49.1,30.06,WSW,242,0.0,2.0,84,0.00,,,0.00,meteohub,2013-01-26 11:52:00,
2013-01-26 03:57:00,53.6,48.9,30.06,West,267,1.0,1.0,84,0.00,,,0.00,meteohub,2013-01-26 11:57:00,
2013-01-26 04:02:00,53.6,49.3,30.06,WNW,286,1.0,2.0,85,0.00,,,0.00,meteohub,2013-01-26 12:02:00,
2013-01-26 04:07:00,53.6,49.3,30.06,West,277,1.0,2.0,85,0.00,,,0.00,meteohub,2013-01-26 12:07:00,
2013-01-26 04:12:00,53.8,49.6,30.06,WNW,301,3.0,4.0,86,0.00,,,0.00,meteohub,2013-01-26 12:12:00,
2013-01-26 04:17:00,53.8,49.6,30.06,WSW,240,0.0,4.0,86,0.00,,,0.00,meteohub,2013-01-26 12:17:00,
2013-01-26 04:22:00,53.6,49.5,30.05,SW,227,2.0,4.0,86,0.00,,,0.00,meteohub,2013-01-26 12:22:00,
2013-01-26 04:27:00,53.4,49.3,30.06,WNW,287,1.0,4.0,86,0.00,,,0.00,meteohub,2013-01-26 12:27:00,
2013-01-26 04:37:00,53.2,49.5,30.06,WNW,298,1.0,5.0,87,0.00,,,0.00,meteohub,2013-01-26 12:37:00,
2013-01-26 04:42:00,53.2,49.8,30.06,WNW,284,0.0,5.0,88,0.00,,,0.00,meteohub,2013-01-26 12:42:00,
2013-01-26 04:47:00,53.2,49.8,30.06,WNW,295,1.0,5.0,88,0.00,,,0.00,meteohub,2013-01-26 12:47:00,
2013-01-26 04:52:00,53.2,49.8,30.06,NW,310,0.0,3.0,88,0.00,,,0.00,meteohub,2013-01-26 12:52:00,
2013-01-26 04:57:00,53.2,49.8,30.06,WNW,290,2.0,3.0,88,0.00,,,0.00,meteohub,2013-01-26 12:57:00,
2013-01-26 05:02:00,53.2,49.8,30.06,WNW,294,0.0,5.0,88,0.00,,,0.00,meteohub,2013-01-26 13:02:00,
2013-01-26 05:07:00,53.1,49.6,30.06,West,278,4.0,7.0,88,0.00,,,0.00,meteohub,2013-01-26 13:07:00,
2013-01-26 05:12:00,52.5,49.6,30.06,NW,325,7.0,10.0,90,0.00,,,0.00,meteohub,2013-01-26 13:12:00,
2013-01-26 05:17:00,52.2,49.6,30.06,NW,323,5.0,11.0,91,0.00,,,0.00,meteohub,2013-01-26 13:17:00,
2013-01-26 05:22:00,52.0,49.5,30.06,NW,309,5.0,11.0,91,0.00,,,0.00,meteohub,2013-01-26 13:22:00,
2013-01-26 05:27:00,52.0,49.6,30.06,West,277,3.0,11.0,92,0.00,,,0.00,meteohub,2013-01-26 13:27:00,
2013-01-26 05:32:00,52.0,49.6,30.06,WNW,283,1.0,8.0,92,0.00,,,0.00,meteohub,2013-01-26 13:32:00,
2013-01-26 05:37:00,52.0,50.0,30.06,WNW,299,2.0,8.0,93,0.00,,,0.00,meteohub,2013-01-26 13:37:00,
2013-01-26 05:42:00,52.0,50.0,30.06,NW,321,3.0,8.0,93,0.00,,,0.00,meteohub,2013-01-26 13:42:00,
2013-01-26 05:47:00,52.2,50.2,30.06,NW,306,3.0,10.0,93,0.00,,,0.00,meteohub,2013-01-26 13:47:00,
2013-01-26 05:52:00,52.3,50.4,30.06,WSW,256,2.0,10.0,93,0.00,,,0.00,meteohub,2013-01-26 13:52:00,
2013-01-26 05:57:00,52.3,50.4,30.06,NW,311,2.0,10.0,93,0.00,,,0.00,meteohub,2013-01-26 13:57:00,
2013-01-26 06:02:00,52.3,50.4,30.06,WNW,283,4.0,9.0,93,0.00,,,0.00,meteohub,2013-01-26 14:02:00,
2013-01-26 06:07:00,52.3,50.4,30.06,WNW,302,4.0,11.0,93,0.00,,,0.00,meteohub,2013-01-26 14:07:00,
2013-01-26 06:12:00,52.3,50.4,30.05,ENE,63,4.0,13.0,93,0.00,,,0.00,meteohub,2013-01-26 14:12:00,
2013-01-26 06:17:00,52.3,50.0,30.06,North,350,4.0,13.0,92,0.00,,,0.00,meteohub,2013-01-26 14:17:00,
2013-01-26 06:22:00,52.3,50.0,30.05,WNW,298,7.0,13.0,92,0.00,,,0.00,meteohub,2013-01-26 14:22:00,
2013-01-26 06:27:00,52.3,50.0,30.05,NW,315,3.0,11.0,92,0.00,,,0.00,meteohub,2013-01-26 14:27:00,
2013-01-26 06:32:00,52.3,50.0,30.06,West,272,5.0,8.0,92,0.00,,,0.00,meteohub,2013-01-26 14:32:00,
2013-01-26 06:37:00,52.3,50.0,30.06,NNW,329,3.0,7.0,92,0.00,,,0.00,meteohub,2013-01-26 14:37:00,
2013-01-26 06:42:00,52.3,50.0,30.06,WNW,296,8.0,8.0,92,0.00,,,0.00,meteohub,2013-01-26 14:42:00,
2013-01-26 06:47:00,52.3,50.0,30.06,WSW,257,3.0,8.0,92,0.00,,,0.00,meteohub,2013-01-26 14:47:00,
2013-01-26 06:52:00,52.3,50.0,30.06,WNW,294,4.0,8.0,92,0.00,,,0.00,meteohub,2013-01-26 14:52:00,
2013-01-26 06:57:00,52.3,50.0,30.06,SW,218,2.0,8.0,92,0.00,,,0.00,meteohub,2013-01-26 14:57:00,
2013-01-26 07:02:00,52.3,50.0,30.06,WNW,283,3.0,7.0,92,0.00,,,0.00,meteohub,2013-01-26 15:02:00,
2013-01-26 07:07:00,52.3,50.0,30.06,West,261,1.0,5.0,92,0.00,,,0.00,meteohub,2013-01-26 15:07:00,
2013-01-26 07:12:00,52.3,50.0,30.06,WNW,286,1.0,8.0,92,0.00,,,0.00,meteohub,2013-01-26 15:12:00,
2013-01-26 07:17:00,52.3,50.0,30.06,WNW,299,5.0,9.0,92,0.00,,,0.00,meteohub,2013-01-26 15:17:00,
2013-01-26 07:22:00,52.3,50.4,30.06,WNW,285,2.0,9.0,93,0.00,,,0.00,meteohub,2013-01-26 15:22:00,
2013-01-26 07:27:00,52.5,50.2,30.06,SW,225,5.0,7.0,92,0.00,,,0.00,meteohub,2013-01-26 15:27:00,
2013-01-26 07:32:00,52.3,50.0,30.06,WSW,240,2.0,8.0,92,0.00,,,0.00,meteohub,2013-01-26 15:32:00,
2013-01-26 07:42:00,51.8,49.3,30.06,NW,305,4.0,10.0,91,0.00,,,0.00,meteohub,2013-01-26 15:42:00,
2013-01-26 07:47:00,51.6,49.1,30.06,West,280,4.0,12.0,91,0.00,,,0.00,meteohub,2013-01-26 15:47:00,
2013-01-26 07:52:00,51.6,49.1,30.06,WNW,291,9.0,12.0,91,0.00,,,0.00,meteohub,2013-01-26 15:52:00,
2013-01-26 07:57:00,51.6,49.1,30.06,WNW,296,6.0,10.0,91,0.00,,,0.00,meteohub,2013-01-26 15:57:00,
2013-01-26 08:02:00,51.6,48.6,30.06,WNW,295,7.0,11.0,89,0.00,,,0.00,meteohub,2013-01-26 16:02:00,
2013-01-26 08:07:00,51.4,48.0,30.06,NNW,329,8.0,13.0,88,0.00,,,0.00,meteohub,2013-01-26 16:07:00,
2013-01-26 08:12:00,51.6,48.2,30.06,West,278,2.0,13.0,88,0.00,,,0.00,meteohub,2013-01-26 16:12:00,
2013-01-26 08:17:00,51.6,47.8,30.06,NW,311,6.0,11.0,87,0.00,,,0.00,meteohub,2013-01-26 16:17:00,
2013-01-26 08:22:00,51.6,47.5,30.06,West,277,6.0,11.0,86,0.00,,,0.00,meteohub,2013-01-26 16:22:00,
2013-01-26 08:27:00,52.0,47.7,30.06,WNW,283,5.0,10.0,85,0.00,,,0.00,meteohub,2013-01-26 16:27:00,
2013-01-26 08:32:00,52.2,47.8,30.06,WNW,295,1.0,10.0,85,0.00,,,0.00,meteohub,2013-01-26 16:32:00,
2013-01-26 08:37:00,52.5,48.2,30.06,NE,46,2.0,8.0,85,0.00,,,0.00,meteohub,2013-01-26 16:37:00,
2013-01-26 08:42:00,52.7,47.3,30.06,WNW,295,2.0,7.0,82,0.00,,,0.00,meteohub,2013-01-26 16:42:00,
2013-01-26 08:47:00,52.9,47.3,30.06,West,273,1.0,10.0,81,0.00,,,0.00,meteohub,2013-01-26 16:47:00,
2013-01-26 08:52:00,53.1,47.1,30.06,WNW,292,6.0,10.0,80,0.00,,,0.00,meteohub,2013-01-26 16:52:00,
2013-01-26 08:57:00,52.9,46.2,30.06,WNW,286,8.0,10.0,78,0.00,,,0.00,meteohub,2013-01-26 16:57:00,
2013-01-26 09:02:00,52.7,45.7,30.06,WNW,292,9.0,10.0,77,0.00,,,0.00,meteohub,2013-01-26 17:02:00,
2013-01-26 09:07:00,52.7,45.3,30.06,WNW,286,8.0,10.0,76,0.00,,,0.00,meteohub,2013-01-26 17:07:00,
2013-01-26 09:12:00,52.9,45.1,30.06,NW,315,8.0,10.0,75,0.00,,,0.00,meteohub,2013-01-26 17:12:00,
2013-01-26 09:17:00,52.9,45.1,30.07,WNW,292,2.0,10.0,75,0.00,,,0.00,meteohub,2013-01-26 17:17:00,
2013-01-26 09:22:00,53.2,45.5,30.07,NW,304,3.0,12.0,75,0.00,,,0.00,meteohub,2013-01-26 17:22:00,
2013-01-26 09:27:00,53.2,45.1,30.07,WNW,292,7.0,12.0,74,0.00,,,0.00,meteohub,2013-01-26 17:27:00,
2013-01-26 09:32:00,53.6,45.5,30.07,NW,313,1.0,12.0,74,0.00,,,0.00,meteohub,2013-01-26 17:32:00,
2013-01-26 09:37:00,53.8,45.7,30.07,NW,306,3.0,8.0,74,0.00,,,0.00,meteohub,2013-01-26 17:37:00,
2013-01-26 09:42:00,54.0,45.5,30.07,WSW,257,3.0,8.0,73,0.00,,,0.00,meteohub,2013-01-26 17:42:00,
2013-01-26 09:47:00,54.0,45.1,30.07,NW,307,2.0,9.0,72,0.00,,,0.00,meteohub,2013-01-26 17:47:00,
2013-01-26 09:52:00,54.0,45.1,30.07,NW,306,2.0,9.0,72,0.00,,,0.00,meteohub,2013-01-26 17:52:00,
2013-01-26 09:57:00,53.8,45.0,30.08,WNW,299,9.0,10.0,72,0.00,,,0.00,meteohub,2013-01-26 17:57:00,
2013-01-26 10:02:00,53.8,44.6,30.08,West,277,6.0,15.0,71,0.00,,,0.00,meteohub,2013-01-26 18:02:00,
2013-01-26 10:07:00,54.1,45.3,30.08,WNW,290,4.0,15.0,72,0.00,,,0.00,meteohub,2013-01-26 18:07:00,
2013-01-26 10:12:00,54.3,45.5,30.08,NNW,338,2.0,15.0,72,0.00,,,0.00,meteohub,2013-01-26 18:12:00,
2013-01-26 10:17:00,54.7,45.9,30.08,WNW,299,6.0,10.0,72,0.00,,,0.00,meteohub,2013-01-26 18:17:00,
2013-01-26 10:22:00,54.7,45.1,30.08,NW,309,4.0,9.0,70,0.00,,,0.00,meteohub,2013-01-26 18:22:00,
2013-01-26 10:27:00,54.9,44.4,30.08,WNW,294,5.0,10.0,68,0.00,,,0.00,meteohub,2013-01-26 18:27:00,
2013-01-26 10:32:00,54.9,44.4,30.08,WNW,303,9.0,13.0,68,0.00,,,0.00,meteohub,2013-01-26 18:32:00,
2013-01-26 10:37:00,54.9,44.4,30.08,West,280,5.0,15.0,68,0.00,,,0.00,meteohub,2013-01-26 18:37:00,
2013-01-26 10:42:00,55.0,44.2,30.08,West,276,6.0,15.0,67,0.00,,,0.00,meteohub,2013-01-26 18:42:00,
2013-01-26 10:47:00,55.6,44.4,30.08,NW,317,6.0,15.0,66,0.00,,,0.00,meteohub,2013-01-26 18:47:00,
2013-01-26 10:52:00,55.8,44.6,30.08,WNW,286,5.0,13.0,66,0.00,,,0.00,meteohub,2013-01-26 18:52:00,
2013-01-26 10:57:00,55.8,43.7,30.08,WNW,292,8.0,9.0,64,0.00,,,0.00,meteohub,2013-01-26 18:57:00,
2013-01-26 11:02:00,55.8,43.7,30.08,West,271,4.0,12.0,64,0.00,,,0.00,meteohub,2013-01-26 19:02:00,
2013-01-26 11:07:00,55.9,42.6,30.08,WNW,283,3.0,12.0,61,0.00,,,0.00,meteohub,2013-01-26 19:07:00,
2013-01-26 11:12:00,56.3,43.5,30.08,WNW,283,5.0,12.0,62,0.00,,,0.00,meteohub,2013-01-26 19:12:00,
2013-01-26 11:17:00,56.5,43.2,30.08,NW,313,5.0,10.0,61,0.00,,,0.00,meteohub,2013-01-26 19:17:00,
2013-01-26 11:22:00,56.1,42.8,30.07,NW,310,2.0,10.0,61,0.00,,,0.00,meteohub,2013-01-26 19:22:00,
2013-01-26 11:27:00,55.9,43.2,30.07,NW,325,8.0,14.0,62,0.00,,,0.00,meteohub,2013-01-26 19:27:00,
2013-01-26 11:32:00,55.8,43.3,30.08,NW,322,9.0,14.0,63,0.00,,,0.00,meteohub,2013-01-26 19:32:00,
2013-01-26 11:37:00,55.8,43.7,30.07,WNW,298,6.0,14.0,64,0.00,,,0.00,meteohub,2013-01-26 19:37:00,
2013-01-26 11:42:00,55.8,43.7,30.06,WNW,285,2.0,14.0,64,0.00,,,0.00,meteohub,2013-01-26 19:42:00,
2013-01-26 11:47:00,55.9,43.9,30.06,NW,306,9.0,13.0,64,0.00,,,0.00,meteohub,2013-01-26 19:47:00,
2013-01-26 11:52:00,55.9,44.8,30.06,NW,311,3.0,12.0,66,0.00,,,0.00,meteohub,2013-01-26 19:52:00,
2013-01-26 11:57:00,55.9,45.1,30.06,WNW,293,5.0,13.0,67,0.00,,,0.00,meteohub,2013-01-26 19:57:00,
2013-01-26 12:02:00,55.9,44.8,30.06,NNE,16,5.0,13.0,66,0.00,,,0.00,meteohub,2013-01-26 20:02:00,
2013-01-26 12:07:00,55.8,45.0,30.06,WNW,300,8.0,13.0,67,0.00,,,0.00,meteohub,2013-01-26 20:07:00,
2013-01-26 12:12:00,55.9,45.5,30.06,NW,323,8.0,16.0,68,0.00,,,0.00,meteohub,2013-01-26 20:12:00,
2013-01-26 12:17:00,55.8,45.3,30.06,North,0,4.0,16.0,68,0.00,,,0.00,meteohub,2013-01-26 20:17:00,
2013-01-26 12:22:00,55.6,45.5,30.06,WNW,300,5.0,13.0,69,0.00,,,0.00,meteohub,2013-01-26 20:22:00,
2013-01-26 12:27:00,55.8,46.0,30.06,NW,304,8.0,16.0,70,0.00,,,0.00,meteohub,2013-01-26 20:27:00,
2013-01-26 12:32:00,55.8,46.6,30.06,SSW,199,5.0,16.0,71,0.00,,,0.00,meteohub,2013-01-26 20:32:00,
2013-01-26 12:37:00,55.4,46.2,30.05,West,260,7.0,14.0,71,0.00,,,0.00,meteohub,2013-01-26 20:37:00,
2013-01-26 12:42:00,55.4,46.6,30.05,WSW,248,5.0,15.0,72,0.00,,,0.00,meteohub,2013-01-26 20:42:00,
2013-01-26 12:47:00,55.2,46.4,30.05,NW,317,5.0,16.0,72,0.00,,,0.00,meteohub,2013-01-26 20:47:00,
2013-01-26 12:52:00,55.6,46.0,30.05,NW,304,8.0,16.0,70,0.00,,,0.00,meteohub,2013-01-26 20:52:00,
2013-01-26 12:57:00,55.6,45.5,30.05,WNW,302,7.0,19.0,69,0.00,,,0.00,meteohub,2013-01-26 20:57:00,
2013-01-26 13:02:00,55.8,45.7,30.05,WSW,244,5.0,19.0,69,0.00,,,0.00,meteohub,2013-01-26 21:02:00,
2013-01-26 13:07:00,55.8,46.0,30.05,WNW,291,6.0,15.0,70,0.00,,,0.00,meteohub,2013-01-26 21:07:00,
2013-01-26 13:12:00,55.4,45.9,30.04,NNW,328,7.0,14.0,70,0.00,,,0.00,meteohub,2013-01-26 21:12:00,
2013-01-26 13:17:00,55.8,46.0,30.05,NW,309,5.0,14.0,70,0.00,,,0.00,meteohub,2013-01-26 21:17:00,
2013-01-26 13:22:00,56.1,46.4,30.04,West,261,5.0,14.0,70,0.00,,,0.00,meteohub,2013-01-26 21:22:00,
2013-01-26 13:27:00,55.8,46.6,30.04,NW,304,8.0,16.0,71,0.00,,,0.00,meteohub,2013-01-26 21:27:00,
2013-01-26 13:32:00,55.6,46.4,30.04,NNE,30,4.0,16.0,71,0.00,,,0.00,meteohub,2013-01-26 21:32:00,
2013-01-26 13:37:00,55.6,46.8,30.04,NNE,17,13.0,16.0,72,0.00,,,0.00,meteohub,2013-01-26 21:37:00,
2013-01-26 13:42:00,55.8,46.9,30.04,WNW,285,13.0,16.0,72,0.00,,,0.00,meteohub,2013-01-26 21:42:00,
2013-01-26 13:47:00,55.8,46.6,30.04,West,265,6.0,16.0,71,0.00,,,0.00,meteohub,2013-01-26 21:47:00,
2013-01-26 13:52:00,55.6,45.1,30.05,NW,321,9.0,16.0,68,0.00,,,0.00,meteohub,2013-01-26 21:52:00,
2013-01-26 13:57:00,55.6,45.1,30.04,West,271,13.0,16.0,68,0.00,,,0.00,meteohub,2013-01-26 21:57:00,
2013-01-26 14:02:00,55.4,45.0,30.05,West,281,5.0,18.0,68,0.00,,,0.00,meteohub,2013-01-26 22:02:00,
2013-01-26 14:07:00,55.8,45.3,30.05,NW,315,11.0,18.0,68,0.00,,,0.00,meteohub,2013-01-26 22:07:00,
2013-01-26 14:12:00,55.4,45.0,30.04,NW,315,11.0,18.0,68,0.00,,,0.00,meteohub,2013-01-26 22:12:00,
2013-01-26 14:17:00,55.8,45.3,30.05,WNW,294,5.0,11.0,68,0.00,,,0.00,meteohub,2013-01-26 22:17:00,
2013-01-26 14:22:00,55.4,44.6,30.05,WSW,253,12.0,15.0,67,0.00,,,0.00,meteohub,2013-01-26 22:22:00,
2013-01-26 14:27:00,55.0,45.5,30.05,West,280,4.0,15.0,70,0.00,,,0.00,meteohub,2013-01-26 22:27:00,
2013-01-26 14:32:00,55.0,45.9,30.05,NNW,340,5.0,18.0,71,0.00,,,0.00,meteohub,2013-01-26 22:32:00,
2013-01-26 14:37:00,55.2,45.1,30.05,West,268,10.0,18.0,69,0.00,,,0.00,meteohub,2013-01-26 22:37:00,
2013-01-26 14:42:00,55.0,45.1,30.05,WNW,298,5.0,15.0,69,0.00,,,0.00,meteohub,2013-01-26 22:42:00,
2013-01-26 14:47:00,55.2,43.7,30.06,WSW,257,11.0,19.0,65,0.00,,,0.00,meteohub,2013-01-26 22:47:00,
2013-01-26 14:52:00,54.9,43.0,30.05,NW,304,13.0,19.0,64,0.00,,,0.00,meteohub,2013-01-26 22:52:00,
2013-01-26 14:57:00,54.9,42.4,30.06,West,273,6.0,20.0,63,0.00,,,0.00,meteohub,2013-01-26 22:57:00,
2013-01-26 15:02:00,54.9,43.0,30.05,NW,317,7.0,20.0,64,0.00,,,0.00,meteohub,2013-01-26 23:02:00,
2013-01-26 15:07:00,55.0,43.2,30.06,West,273,15.0,18.0,64,0.00,,,0.00,meteohub,2013-01-26 23:07:00,
2013-01-26 15:12:00,54.9,43.3,30.05,West,264,12.0,21.0,65,0.00,,,0.00,meteohub,2013-01-26 23:12:00,
2013-01-26 15:17:00,54.9,44.4,30.05,WNW,286,9.0,21.0,68,0.00,,,0.00,meteohub,2013-01-26 23:17:00,
2013-01-26 15:22:00,55.0,44.2,30.05,NNW,327,5.0,21.0,67,0.00,,,0.00,meteohub,2013-01-26 23:22:00,
2013-01-26 15:27:00,55.2,44.1,30.05,NNE,32,6.0,17.0,66,0.00,,,0.00,meteohub,2013-01-26 23:27:00,
2013-01-26 15:32:00,55.0,43.9,30.05,NW,321,9.0,17.0,66,0.00,,,0.00,meteohub,2013-01-26 23:32:00,
2013-01-26 15:37:00,54.9,44.1,30.05,WSW,252,11.0,17.0,67,0.00,,,0.00,meteohub,2013-01-26 23:37:00,
2013-01-26 15:42:00,54.7,43.9,30.06,WNW,298,5.0,13.0,67,0.00,,,0.00,meteohub,2013-01-26 23:42:00,
2013-01-26 15:47:00,54.7,43.9,30.05,WNW,283,5.0,14.0,67,0.00,,,0.00,meteohub,2013-01-26 23:47:00,
2013-01-26 15:52:00,54.7,44.2,30.05,West,273,11.0,17.0,68,0.00,,,0.00,meteohub,2013-01-26 23:52:00,
2013-01-26 15:57:00,54.1,43.3,30.05,WNW,290,9.0,17.0,67,0.00,,,0.00,meteohub,2013-01-26 23:57:00,
2013-01-26 16:02:00,54.7,43.9,30.05,North,5,11.0,13.0,67,0.00,,,0.00,meteohub,2013-01-27 00:02:00,
2013-01-26 16:07:00,54.3,43.5,30.05,WSW,253,4.0,17.0,67,0.00,,,0.00,meteohub,2013-01-27 00:07:00,
2013-01-26 16:12:00,54.7,44.2,30.06,NW,314,3.0,17.0,68,0.00,,,0.00,meteohub,2013-01-27 00:12:00,
2013-01-26 16:17:00,54.7,44.2,30.05,NNW,329,5.0,17.0,68,0.00,,,0.00,meteohub,2013-01-27 00:17:00,
2013-01-26 16:22:00,54.5,44.6,30.05,West,281,6.0,12.0,69,0.00,,,0.00,meteohub,2013-01-27 00:22:00,
2013-01-26 16:27:00,54.1,44.2,30.05,WNW,288,9.0,15.0,69,0.00,,,0.00,meteohub,2013-01-27 00:27:00,
2013-01-26 16:32:00,54.0,44.8,30.05,NNW,340,6.0,15.0,71,0.00,,,0.00,meteohub,2013-01-27 00:32:00,
2013-01-26 16:37:00,54.0,44.8,30.05,WSW,255,3.0,15.0,71,0.00,,,0.00,meteohub,2013-01-27 00:37:00,
2013-01-26 16:42:00,54.0,44.4,30.05,NW,315,8.0,15.0,70,0.00,,,0.00,meteohub,2013-01-27 00:42:00,
2013-01-26 16:47:00,53.4,43.9,30.05,NNW,331,9.0,11.0,70,0.00,,,0.00,meteohub,2013-01-27 00:47:00,
2013-01-26 16:52:00,53.1,43.5,30.05,West,276,4.0,17.0,70,0.00,,,0.00,meteohub,2013-01-27 00:52:00,
2013-01-26 16:57:00,53.1,43.9,30.05,NW,313,9.0,17.0,71,0.00,,,0.00,meteohub,2013-01-27 00:57:00,
2013-01-26 17:02:00,52.9,43.3,30.05,West,275,8.0,17.0,70,0.00,,,0.00,meteohub,2013-01-27 01:02:00,
2013-01-26 17:07:00,52.5,43.0,30.06,NW,321,10.0,16.0,70,0.00,,,0.00,meteohub,2013-01-27 01:07:00,
2013-01-26 17:12:00,52.3,42.4,30.05,WNW,292,7.0,16.0,69,0.00,,,0.00,meteohub,2013-01-27 01:12:00,
2013-01-26 17:17:00,52.2,42.6,30.06,NE,50,5.0,16.0,70,0.00,,,0.00,meteohub,2013-01-27 01:17:00,
2013-01-26 17:22:00,52.2,43.0,30.06,West,277,13.0,15.0,71,0.00,,,0.00,meteohub,2013-01-27 01:22:00,
2013-01-26 17:27:00,52.0,43.2,30.06,WNW,302,4.0,17.0,72,0.00,,,0.00,meteohub,2013-01-27 01:27:00,
2013-01-26 17:32:00,51.8,43.0,30.06,NW,309,9.0,17.0,72,0.00,,,0.00,meteohub,2013-01-27 01:32:00,
2013-01-26 17:37:00,51.8,43.0,30.06,WSW,246,4.0,17.0,72,0.00,,,0.00,meteohub,2013-01-27 01:37:00,
2013-01-26 17:42:00,51.6,43.3,30.07,WNW,287,7.0,13.0,73,0.00,,,0.00,meteohub,2013-01-27 01:42:00,
2013-01-26 17:47:00,51.6,43.0,30.07,NW,326,10.0,16.0,72,0.00,,,0.00,meteohub,2013-01-27 01:47:00,
2013-01-26 17:52:00,51.4,42.8,30.06,WNW,290,7.0,16.0,72,0.00,,,0.00,meteohub,2013-01-27 01:52:00,
2013-01-26 17:57:00,51.4,42.8,30.06,ENE,77,3.0,14.0,72,0.00,,,0.00,meteohub,2013-01-27 01:57:00,
2013-01-26 18:02:00,51.4,43.2,30.06,WNW,295,5.0,13.0,73,0.00,,,0.00,meteohub,2013-01-27 02:02:00,
2013-01-26 18:07:00,51.4,42.8,30.07,WSW,238,5.0,13.0,72,0.00,,,0.00,meteohub,2013-01-27 02:07:00,
2013-01-26 18:12:00,51.4,42.8,30.07,NW,312,3.0,15.0,72,0.00,,,0.00,meteohub,2013-01-27 02:12:00,
2013-01-26 18:17:00,51.4,43.2,30.07,NE,50,3.0,15.0,73,0.00,,,0.00,meteohub,2013-01-27 02:17:00,
2013-01-26 18:22:00,51.3,43.3,30.07,West,267,10.0,12.0,74,0.00,,,0.00,meteohub,2013-01-27 02:22:00,
2013-01-26 18:27:00,51.3,43.3,30.07,NW,325,8.0,16.0,74,0.00,,,0.00,meteohub,2013-01-27 02:27:00,
2013-01-26 18:32:00,51.3,43.3,30.08,NW,311,11.0,16.0,74,0.00,,,0.00,meteohub,2013-01-27 02:32:00,
2013-01-26 18:37:00,51.1,43.2,30.08,West,264,10.0,16.0,74,0.00,,,0.00,meteohub,2013-01-27 02:37:00,
2013-01-26 18:42:00,51.1,43.2,30.08,West,279,4.0,15.0,74,0.00,,,0.00,meteohub,2013-01-27 02:42:00,
2013-01-26 18:47:00,51.1,43.2,30.08,NW,307,4.0,14.0,74,0.00,,,0.00,meteohub,2013-01-27 02:47:00,
2013-01-26 18:52:00,51.1,43.2,30.08,WNW,290,4.0,18.0,74,0.00,,,0.00,meteohub,2013-01-27 02:52:00,
2013-01-26 18:57:00,51.1,43.2,30.09,WNW,290,9.0,18.0,74,0.00,,,0.00,meteohub,2013-01-27 02:57:00,
2013-01-26 19:02:00,50.9,43.0,30.08,NNW,342,4.0,18.0,74,0.00,,,0.00,meteohub,2013-01-27 03:02:00,
2013-01-26 19:07:00,50.7,42.8,30.08,NW,304,6.0,13.0,74,0.00,,,0.00,meteohub,2013-01-27 03:07:00,
2013-01-26 19:12:00,50.7,43.2,30.08,SW,229,2.0,17.0,75,0.00,,,0.00,meteohub,2013-01-27 03:12:00,
2013-01-26 19:17:00,50.5,43.0,30.08,NW,309,11.0,17.0,75,0.00,,,0.00,meteohub,2013-01-27 03:17:00,
2013-01-26 19:22:00,50.7,43.2,30.09,East,95,3.0,14.0,75,0.00,,,0.00,meteohub,2013-01-27 03:22:00,
2013-01-26 19:27:00,50.5,43.0,30.09,WNW,303,6.0,14.0,75,0.00,,,0.00,meteohub,2013-01-27 03:27:00,
2013-01-26 19:32:00,50.5,42.6,30.09,West,277,2.0,13.0,74,0.00,,,0.00,meteohub,2013-01-27 03:32:00,
2013-01-26 19:37:00,50.5,43.0,30.09,WNW,290,1.0,13.0,75,0.00,,,0.00,meteohub,2013-01-27 03:37:00,
2013-01-26 19:42:00,50.5,43.0,30.10,NW,318,3.0,13.0,75,0.00,,,0.00,meteohub,2013-01-27 03:42:00,
2013-01-26 19:47:00,50.5,43.0,30.10,NE,50,4.0,10.0,75,0.00,,,0.00,meteohub,2013-01-27 03:47:00,
2013-01-26 19:52:00,50.4,42.8,30.10,West,276,4.0,9.0,75,0.00,,,0.00,meteohub,2013-01-27 03:52:00,
2013-01-26 19:57:00,50.4,42.8,30.10,NW,309,4.0,9.0,75,0.00,,,0.00,meteohub,2013-01-27 03:57:00,
2013-01-26 20:02:00,50.4,42.8,30.10,West,264,3.0,13.0,75,0.00,,,0.00,meteohub,2013-01-27 04:02:00,
2013-01-26 20:07:00,50.4,42.8,30.10,East,94,1.0,13.0,75,0.00,,,0.00,meteohub,2013-01-27 04:07:00,
2013-01-26 20:12:00,50.2,42.6,30.10,NW,320,11.0,13.0,75,0.00,,,0.00,meteohub,2013-01-27 04:12:00,
2013-01-26 20:17:00,50.2,42.6,30.10,NE,48,6.0,12.0,75,0.00,,,0.00,meteohub,2013-01-27 04:17:00,
2013-01-26 20:22:00,50.2,42.6,30.11,South,177,2.0,12.0,75,0.00,,,0.00,meteohub,2013-01-27 04:22:00,
2013-01-26 20:27:00,50.2,42.3,30.10,ENE,65,5.0,12.0,74,0.00,,,0.00,meteohub,2013-01-27 04:27:00,
2013-01-26 20:32:00,50.2,42.6,30.10,NNW,333,5.0,11.0,75,0.00,,,0.00,meteohub,2013-01-27 04:32:00,
2013-01-26 20:37:00,50.2,42.3,30.10,WNW,286,9.0,11.0,74,0.00,,,0.00,meteohub,2013-01-27 04:37:00,
2013-01-26 20:42:00,50.2,42.3,30.10,NW,311,6.0,9.0,74,0.00,,,0.00,meteohub,2013-01-27 04:42:00,
2013-01-26 20:47:00,50.2,42.3,30.11,NW,315,2.0,9.0,74,0.00,,,0.00,meteohub,2013-01-27 04:47:00,
2013-01-26 20:57:00,50.2,42.3,30.11,NW,309,4.0,10.0,74,0.00,,,0.00,meteohub,2013-01-27 04:57:00,
2013-01-26 21:02:00,50.2,42.3,30.10,NW,319,7.0,11.0,74,0.00,,,0.00,meteohub,2013-01-27 05:02:00,
2013-01-26 21:12:00,50.2,42.6,30.11,North,350,5.0,14.0,75,0.00,,,0.00,meteohub,2013-01-27 05:12:00,
2013-01-26 21:17:00,50.2,42.6,30.11,WNW,301,10.0,14.0,75,0.00,,,0.00,meteohub,2013-01-27 05:17:00,
2013-01-26 21:22:00,50.0,42.4,30.11,West,273,3.0,14.0,75,0.00,,,0.00,meteohub,2013-01-27 05:22:00,
2013-01-26 21:27:00,50.2,42.6,30.11,NW,310,3.0,10.0,75,0.00,,,0.00,meteohub,2013-01-27 05:27:00,
2013-01-26 21:32:00,50.0,42.4,30.11,WNW,303,5.0,10.0,75,0.00,,,0.00,meteohub,2013-01-27 05:32:00,
2013-01-26 21:37:00,49.8,42.3,30.11,West,261,9.0,9.0,75,0.00,,,0.00,meteohub,2013-01-27 05:37:00,
2013-01-26 21:42:00,49.8,42.3,30.11,NNW,343,6.0,12.0,75,0.00,,,0.00,meteohub,2013-01-27 05:42:00,
2013-01-26 21:47:00,49.8,42.3,30.11,WNW,290,9.0,12.0,75,0.00,,,0.00,meteohub,2013-01-27 05:47:00,
2013-01-26 21:52:00,49.8,42.3,30.12,NW,306,3.0,13.0,75,0.00,,,0.00,meteohub,2013-01-27 05:52:00,
2013-01-26 21:57:00,49.8,42.3,30.12,NNW,331,1.0,13.0,75,0.00,,,0.00,meteohub,2013-01-27 05:57:00,
2013-01-26 22:02:00,49.6,42.1,30.12,NNW,330,5.0,13.0,75,0.00,,,0.00,meteohub,2013-01-27 06:02:00,
2013-01-26 22:07:00,49.6,42.1,30.12,NW,325,2.0,9.0,75,0.00,,,0.00,meteohub,2013-01-27 06:07:00,
2013-01-26 22:12:00,49.6,42.4,30.12,NW,309,4.0,9.0,76,0.00,,,0.00,meteohub,2013-01-27 06:12:00,
2013-01-26 22:17:00,49.6,42.4,30.12,NE,42,4.0,9.0,76,0.00,,,0.00,meteohub,2013-01-27 06:17:00,
2013-01-26 22:22:00,49.6,42.4,30.12,NW,306,2.0,9.0,76,0.00,,,0.00,meteohub,2013-01-27 06:22:00,
2013-01-26 22:27:00,49.6,42.4,30.12,WNW,283,4.0,8.0,76,0.00,,,0.00,meteohub,2013-01-27 06:27:00,
2013-01-26 22:32:00,49.8,42.6,30.12,WNW,296,6.0,7.0,76,0.00,,,0.00,meteohub,2013-01-27 06:32:00,
2013-01-26 22:37:00,49.6,42.4,30.12,NNE,27,3.0,12.0,76,0.00,,,0.00,meteohub,2013-01-27 06:37:00,
2013-01-26 22:42:00,49.6,42.4,30.12,NNE,24,1.0,12.0,76,0.00,,,0.00,meteohub,2013-01-27 06:42:00,
2013-01-26 22:47:00,49.8,42.6,30.12,NW,307,2.0,12.0,76,0.00,,,0.00,meteohub,2013-01-27 06:47:00,
2013-01-26 22:52:00,49.8,42.6,30.12,NW,307,2.0,7.0,76,0.00,,,0.00,meteohub,2013-01-27 06:52:00,
2013-01-26 22:57:00,49.6,42.4,30.12,North,-999,-999.0,7.0,76,0.00,,,0.00,meteohub,2013-01-27 06:57:00,
2013-01-26 23:02:00,49.6,42.1,30.13,NNE,15,2.0,4.0,75,0.00,,,0.00,meteohub,2013-01-27 07:02:00,
2013-01-26 23:07:00,49.6,42.1,30.13,NE,53,1.0,4.0,75,0.00,,,0.00,meteohub,2013-01-27 07:07:00,
2013-01-26 23:13:00,49.6,42.1,30.13,NNW,333,3.0,5.0,75,0.00,,,0.00,meteohub,2013-01-27 07:13:00,
2013-01-26 23:22:00,49.6,41.7,30.13,NE,35,2.0,7.0,74,0.00,,,0.00,meteohub,2013-01-27 07:22:00,
2013-01-26 23:27:00,49.6,41.7,30.13,NW,309,2.0,8.0,74,0.00,,,0.00,meteohub,2013-01-27 07:27:00,
2013-01-26 23:32:00,49.6,41.7,30.13,West,275,1.0,8.0,74,0.00,,,0.00,meteohub,2013-01-27 07:32:00,
2013-01-26 23:37:00,49.6,41.7,30.13,NW,310,2.0,6.0,74,0.00,,,0.00,meteohub,2013-01-27 07:37:00,
2013-01-26 23:42:00,49.8,41.9,30.13,WNW,298,4.0,10.0,74,0.00,,,0.00,meteohub,2013-01-27 07:42:00,
2013-01-26 23:47:00,49.8,41.9,30.13,NNW,347,8.0,10.0,74,0.00,,,0.00,meteohub,2013-01-27 07:47:00,
2013-01-26 23:52:00,49.8,41.5,30.13,West,267,2.0,10.0,73,0.00,,,0.00,meteohub,2013-01-27 07:52:00,
2013-01-26 23:57:00,49.8,41.5,30.13,NW,312,3.0,9.0,73,0.00,,,0.00,meteohub,2013-01-27 07:57:00,